createdAt,value
2022-12-04T00:01:09.294Z,84.67
2022-12-04T00:03:36.533Z,84.84
2022-12-04T00:06:15.154Z,85.91
2022-12-04T00:08:42.638Z,87.24
2022-12-04T00:11:10.810Z,86.51
2022-12-04T00:13:38.075Z,87.48
2022-12-04T00:16:06.349Z,87.88
2022-12-04T00:18:32.832Z,88.11
2022-12-04T00:20:59.256Z,88.11
2022-12-04T00:23:25.641Z,87.69
2022-12-04T00:25:51.971Z,88.14
2022-12-04T00:28:19.148Z,87.35
2022-12-04T00:30:46.094Z,87.22
2022-12-04T00:33:13.754Z,88.35
2022-12-04T00:35:40.559Z,89.02
2022-12-04T00:38:07.366Z,88.92
2022-12-04T00:40:33.896Z,89.03
2022-12-04T00:43:00.368Z,88.23
2022-12-04T00:45:26.812Z,88.11
2022-12-04T00:47:53.182Z,88.32
2022-12-04T00:50:19.669Z,88.19
2022-12-04T00:52:46.182Z,87.82
2022-12-04T00:55:12.783Z,87.57
2022-12-04T00:57:39.143Z,88.19
2022-12-04T01:00:06.641Z,87.46
2022-12-04T01:02:33.043Z,87.07
2022-12-04T01:05:02.178Z,86.61
2022-12-04T01:07:28.645Z,86.51
2022-12-04T01:09:55.248Z,87.15
2022-12-04T01:12:21.792Z,87.08
2022-12-04T01:14:48.140Z,87.35
2022-12-04T01:17:14.480Z,87.50
2022-12-04T01:19:40.880Z,87.98
2022-12-04T01:22:07.237Z,88.34
2022-12-04T01:24:33.647Z,88.45
2022-12-04T01:26:59.985Z,86.44
2022-12-04T01:29:26.354Z,87.94
2022-12-04T01:31:52.771Z,88.90
2022-12-04T01:34:19.273Z,88.84
2022-12-04T01:36:46.186Z,88.72
2022-12-04T01:39:12.538Z,88.69
2022-12-04T01:41:38.900Z,88.74
2022-12-04T01:44:20.594Z,88.66
2022-12-04T01:46:58.315Z,87.90
2022-12-04T01:49:33.862Z,88.62
2022-12-04T01:52:05.203Z,88.01
2022-12-04T01:54:37.222Z,88.92
2022-12-04T01:57:12.315Z,89.32
2022-12-04T01:59:47.768Z,89.73
2022-12-04T02:02:22.702Z,89.24
2022-12-04T02:04:50.613Z,89.00
2022-12-04T02:07:16.988Z,88.35
2022-12-04T02:09:43.640Z,89.41
2022-12-04T02:12:21.196Z,89.54
2022-12-04T02:14:53.538Z,89.93
2022-12-04T02:17:28.727Z,89.47
2022-12-04T02:20:07.622Z,88.99
2022-12-04T02:22:52.639Z,89.41
2022-12-04T02:25:30.902Z,88.96
2022-12-04T02:28:09.858Z,89.16
2022-12-04T02:30:40.353Z,88.24
2022-12-04T02:33:18.601Z,87.45
2022-12-04T02:36:16.123Z,87.69
2022-12-04T02:38:47.529Z,87.84
2022-12-04T02:41:36.837Z,87.78
2022-12-04T02:44:15.290Z,87.95
2022-12-04T02:46:48.765Z,88.07
2022-12-04T02:49:22.057Z,88.21
2022-12-04T02:51:50.618Z,88.09
2022-12-04T02:54:25.466Z,87.68
2022-12-04T02:56:53.081Z,86.65
2022-12-04T02:59:25.579Z,87.22
2022-12-04T03:01:56.915Z,87.35
2022-12-04T03:04:27.121Z,87.57
2022-12-04T03:07:05.088Z,87.99
2022-12-04T03:09:37.633Z,88.22
2022-12-04T03:12:13.066Z,88.64
2022-12-04T03:14:44.844Z,88.15
2022-12-04T03:17:19.812Z,88.34
2022-12-04T03:19:51.386Z,88.27
2022-12-04T03:22:21.026Z,88.24
2022-12-04T03:24:52.740Z,88.90
2022-12-04T03:27:24.536Z,89.32
2022-12-04T03:29:58.086Z,89.01
2022-12-04T03:32:33.228Z,89.33
2022-12-04T03:35:07.852Z,89.28
2022-12-04T03:37:47.045Z,89.65
2022-12-04T03:40:25.465Z,89.31
2022-12-04T03:43:00.475Z,89.95
2022-12-04T03:45:36.486Z,89.89
2022-12-04T03:48:11.049Z,90.52
2022-12-04T03:50:42.271Z,90.19
2022-12-04T03:53:17.458Z,90.35
2022-12-04T03:55:58.357Z,90.88
2022-12-04T03:58:30.547Z,90.68
2022-12-04T04:00:58.210Z,90.76
2022-12-04T04:03:29.741Z,90.53
2022-12-04T04:06:02.596Z,90.39
2022-12-04T04:08:34.393Z,90.25
2022-12-04T04:11:09.963Z,90.08
2022-12-04T04:13:52.862Z,90.98
2022-12-04T04:16:22.590Z,91.30
2022-12-04T04:18:52.276Z,90.72
2022-12-04T04:21:23.290Z,90.49
2022-12-04T04:23:51.251Z,90.40
2022-12-04T04:26:18.208Z,90.25
2022-12-04T04:28:44.564Z,90.09
2022-12-04T04:31:16.663Z,90.20
2022-12-04T04:33:53.998Z,90.70
2022-12-04T04:36:46.158Z,91.34
2022-12-04T04:39:22.733Z,90.29
2022-12-04T04:42:14.837Z,91.38
2022-12-04T04:44:48.728Z,90.63
2022-12-04T04:47:52.868Z,90.46
2022-12-04T04:50:20.779Z,90.06
2022-12-04T04:52:53.222Z,90.17
2022-12-04T04:55:20.915Z,90.80
2022-12-04T04:57:47.516Z,90.01
2022-12-04T05:00:20.123Z,90.33
2022-12-04T05:02:46.853Z,89.76
2022-12-04T05:05:13.523Z,90.08
2022-12-04T05:07:40.053Z,90.42
2022-12-04T05:10:08.049Z,89.89
2022-12-04T05:12:34.537Z,90.30
2022-12-04T05:15:00.962Z,90.49
2022-12-04T05:17:27.309Z,90.75
2022-12-04T05:19:54.012Z,90.61
2022-12-04T05:22:41.843Z,91.28
2022-12-04T05:25:08.438Z,90.77
2022-12-04T05:27:34.798Z,90.70
2022-12-04T05:30:01.133Z,91.11
2022-12-04T05:32:29.060Z,91.39
2022-12-04T05:34:56.480Z,91.23
2022-12-04T05:37:23.978Z,91.29
2022-12-04T05:39:50.425Z,90.84
2022-12-04T05:42:16.855Z,90.97
2022-12-04T05:44:43.245Z,91.03
2022-12-04T05:47:09.659Z,91.45
2022-12-04T05:49:36.086Z,90.87
2022-12-04T05:52:04.491Z,91.53
2022-12-04T05:54:31.334Z,91.42
2022-12-04T05:56:57.668Z,92.18
2022-12-04T05:59:23.984Z,92.43
2022-12-04T06:01:50.374Z,92.58
2022-12-04T06:04:16.828Z,92.09
2022-12-04T06:06:43.181Z,92.15
2022-12-04T06:09:11.302Z,92.74
2022-12-04T06:11:39.724Z,92.96
2022-12-04T06:14:08.014Z,93.17
2022-12-04T06:16:37.371Z,93.18
2022-12-04T06:19:07.536Z,93.57
2022-12-04T06:21:36.562Z,93.33
2022-12-04T06:24:04.009Z,93.56
2022-12-04T06:26:30.807Z,94.08
2022-12-04T06:28:58.561Z,94.08
2022-12-04T06:31:26.918Z,94.35
2022-12-04T06:33:54.509Z,94.36
2022-12-04T06:36:21.629Z,94.69
2022-12-04T06:38:49.677Z,94.39
2022-12-04T06:41:19.277Z,94.56
2022-12-04T06:43:45.941Z,95.00
2022-12-04T06:46:15.297Z,95.26
2022-12-04T06:48:42.754Z,95.30
2022-12-04T06:51:15.299Z,95.65
2022-12-04T06:53:41.898Z,95.89
2022-12-04T06:56:11.457Z,95.60
2022-12-04T06:58:37.815Z,95.62
2022-12-04T07:01:12.854Z,95.71
2022-12-04T07:03:40.152Z,95.84
2022-12-04T07:06:14.661Z,95.76
2022-12-04T07:08:42.031Z,95.49
2022-12-04T07:11:09.216Z,95.61
2022-12-04T07:13:36.086Z,95.34
2022-12-04T07:16:04.533Z,95.11
2022-12-04T07:18:32.152Z,94.62
2022-12-04T07:20:59.067Z,94.38
2022-12-04T07:23:25.682Z,94.84
2022-12-04T07:25:52.028Z,94.71
2022-12-04T07:28:18.356Z,95.20
2022-12-04T07:30:44.670Z,95.60
2022-12-04T07:33:11.005Z,95.53
2022-12-04T07:35:37.302Z,96.08
2022-12-04T07:38:03.695Z,96.35
2022-12-04T07:40:30.103Z,96.78
2022-12-04T07:42:56.477Z,97.02
2022-12-04T07:45:22.821Z,96.74
2022-12-04T07:47:49.143Z,96.92
2022-12-04T07:50:15.566Z,97.00
2022-12-04T07:52:41.885Z,97.09
2022-12-04T07:55:08.741Z,96.79
2022-12-04T07:57:35.046Z,96.31
2022-12-04T08:00:01.365Z,96.08
2022-12-04T08:02:27.684Z,96.16
2022-12-04T08:04:54.067Z,95.59
2022-12-04T08:07:20.470Z,96.03
2022-12-04T08:09:46.796Z,95.28
2022-12-04T08:12:13.151Z,95.37
2022-12-04T08:14:39.473Z,95.05
2022-12-04T08:17:05.816Z,95.71
2022-12-04T08:19:32.223Z,95.78
2022-12-04T08:21:58.529Z,95.72
2022-12-04T08:24:24.875Z,95.25
2022-12-04T08:26:51.207Z,95.75
2022-12-04T08:29:17.556Z,96.26
2022-12-04T08:31:43.914Z,95.83
2022-12-04T08:34:10.265Z,96.01
2022-12-04T08:36:36.596Z,95.40
2022-12-04T08:39:03.303Z,95.40
2022-12-04T08:41:29.635Z,95.49
2022-12-04T08:43:56.281Z,94.97
2022-12-04T08:46:24.322Z,95.00
2022-12-04T08:48:50.792Z,94.29
2022-12-04T08:51:20.328Z,93.84
2022-12-04T08:53:47.195Z,93.39
2022-12-04T08:56:14.210Z,92.96
2022-12-04T08:58:40.640Z,92.72
2022-12-04T09:01:09.180Z,91.97
2022-12-04T09:03:36.211Z,92.07
2022-12-04T09:06:04.631Z,92.12
2022-12-04T09:08:31.910Z,91.55
2022-12-04T09:11:16.570Z,92.22
2022-12-04T09:13:44.207Z,91.97
2022-12-04T09:16:21.307Z,92.53
2022-12-04T09:18:48.324Z,92.41
2022-12-04T09:21:16.977Z,92.07
2022-12-04T09:23:43.782Z,91.83
2022-12-04T09:26:26.789Z,92.19
2022-12-04T09:28:54.453Z,91.80
2022-12-04T09:31:22.012Z,92.48
2022-12-04T09:33:48.780Z,92.38
2022-12-04T09:36:15.799Z,92.00
2022-12-04T09:38:47.499Z,91.99
2022-12-04T09:41:25.991Z,92.26
2022-12-04T09:44:02.068Z,90.74
2022-12-04T09:46:51.447Z,90.80
2022-12-04T09:49:27.415Z,90.89
2022-12-04T09:51:58.215Z,91.07
2022-12-04T09:54:29.611Z,91.54
2022-12-04T09:57:02.895Z,91.77
2022-12-04T09:59:31.880Z,92.11
2022-12-04T10:02:28.450Z,91.71
2022-12-04T10:04:55.798Z,91.26
2022-12-04T10:07:27.191Z,90.26
2022-12-04T10:10:08.901Z,90.71
2022-12-04T10:13:05.364Z,90.42
2022-12-04T10:15:56.734Z,89.74
2022-12-04T10:18:28.925Z,90.80
2022-12-04T10:21:06.075Z,90.73
2022-12-04T10:24:16.152Z,90.22
2022-12-04T10:26:47.642Z,88.81
2022-12-04T10:29:23.750Z,89.66
2022-12-04T10:31:53.250Z,89.75
2022-12-04T10:34:25.243Z,89.08
2022-12-04T10:36:54.238Z,88.46
2022-12-04T10:39:35.286Z,89.04
2022-12-04T10:42:11.767Z,90.64
2022-12-04T10:44:38.790Z,90.71
2022-12-04T10:47:06.265Z,89.75
2022-12-04T10:49:36.034Z,89.34
2022-12-04T10:52:03.523Z,89.71
2022-12-04T10:54:37.287Z,90.31
2022-12-04T10:57:09.718Z,90.67
2022-12-04T10:59:49.605Z,90.83
2022-12-04T11:02:27.425Z,90.91
2022-12-04T11:05:22.077Z,90.25
2022-12-04T11:07:49.231Z,89.42
2022-12-04T11:10:56.220Z,90.95
2022-12-04T11:13:22.543Z,89.39
2022-12-04T11:15:59.225Z,90.90
2022-12-04T11:18:28.767Z,91.41
2022-12-04T11:21:01.500Z,91.06
2022-12-04T11:23:32.345Z,90.91
2022-12-04T11:26:05.595Z,91.16
2022-12-04T11:28:41.639Z,91.27
2022-12-04T11:31:16.134Z,90.22
2022-12-04T11:33:45.618Z,89.29
2022-12-04T11:36:32.094Z,89.80
2022-12-04T11:39:17.898Z,89.71
2022-12-04T11:41:44.593Z,90.61
2022-12-04T11:44:49.492Z,90.51
2022-12-04T11:47:18.241Z,90.63
2022-12-04T11:49:44.602Z,91.31
2022-12-04T11:52:31.840Z,90.62
2022-12-04T11:55:08.405Z,89.67
2022-12-04T11:57:47.552Z,88.74
2022-12-04T12:00:20.496Z,89.08
2022-12-04T12:02:55.399Z,90.11
2022-12-04T12:06:12.119Z,90.22
2022-12-04T12:08:44.515Z,90.56
2022-12-04T12:11:46.673Z,90.78
2022-12-04T12:14:32.427Z,91.38
2022-12-04T12:17:15.247Z,91.37
2022-12-04T12:19:44.252Z,91.37
2022-12-04T12:22:16.563Z,91.71
2022-12-04T12:25:15.839Z,91.98
2022-12-04T12:28:13.333Z,91.86
2022-12-04T12:30:54.564Z,91.70
2022-12-04T12:33:26.210Z,91.86
2022-12-04T12:36:03.050Z,91.40
2022-12-04T12:38:37.488Z,90.69
2022-12-04T12:41:13.322Z,89.87
2022-12-04T12:43:40.886Z,90.14
2022-12-04T12:46:16.278Z,91.21
2022-12-04T12:49:12.075Z,92.26
2022-12-04T12:52:05.314Z,92.11
2022-12-04T12:54:45.848Z,92.64
2022-12-04T12:57:36.341Z,92.34
2022-12-04T13:00:19.552Z,92.43
2022-12-04T13:02:52.003Z,92.31
2022-12-04T13:05:25.243Z,92.77
2022-12-04T13:08:01.863Z,92.47
2022-12-04T13:10:37.226Z,92.78
2022-12-04T13:13:13.391Z,92.87
2022-12-04T13:15:48.047Z,92.91
2022-12-04T13:18:24.847Z,92.82
2022-12-04T13:20:55.381Z,93.04
2022-12-04T13:23:37.210Z,92.96
2022-12-04T13:26:06.533Z,92.22
2022-12-04T13:28:54.809Z,92.35
2022-12-04T13:31:42.538Z,93.21
2022-12-04T13:34:14.780Z,93.05
2022-12-04T13:36:51.957Z,92.51
2022-12-04T13:39:52.917Z,92.12
2022-12-04T13:42:25.727Z,92.87
2022-12-04T13:45:03.097Z,93.47
2022-12-04T13:47:34.555Z,93.76
2022-12-04T13:50:12.681Z,94.09
2022-12-04T13:52:41.367Z,94.16
2022-12-04T13:55:35.057Z,94.29
2022-12-04T13:58:10.207Z,94.48
2022-12-04T14:00:38.580Z,94.13
2022-12-04T14:03:20.881Z,94.60
2022-12-04T14:05:47.459Z,94.12
2022-12-04T14:10:42.598Z,94.54
2022-12-04T14:13:21.516Z,93.91
2022-12-04T14:15:48.157Z,94.13
2022-12-04T14:18:27.662Z,94.13
2022-12-04T14:20:59.819Z,94.09
2022-12-04T14:23:34.944Z,94.34
2022-12-04T14:26:01.486Z,94.30
2022-12-04T14:28:30.780Z,94.85
2022-12-04T14:31:18.577Z,94.60
2022-12-04T14:33:49.411Z,94.44
2022-12-04T14:36:24.102Z,94.53
2022-12-04T14:39:08.225Z,94.63
2022-12-04T14:41:34.781Z,93.57
2022-12-04T14:44:01.266Z,94.24
2022-12-04T14:46:39.111Z,94.38
2022-12-04T14:49:23.430Z,94.15
2022-12-04T14:51:54.653Z,93.51
2022-12-04T14:54:43.296Z,93.49
2022-12-04T14:57:33.926Z,93.48
2022-12-04T15:00:00.911Z,93.67
2022-12-04T15:02:38.747Z,93.23
2022-12-04T15:05:10.309Z,93.68
2022-12-04T15:07:37.307Z,93.81
2022-12-04T15:10:19.448Z,93.94
2022-12-04T15:12:51.844Z,93.83
2022-12-04T15:15:22.942Z,93.72
2022-12-04T15:18:16.953Z,93.42
2022-12-04T15:20:49.094Z,92.62
2022-12-04T15:23:18.695Z,92.20
2022-12-04T15:25:56.432Z,93.33
2022-12-04T15:28:50.658Z,93.35
2022-12-04T15:31:28.493Z,92.71
2022-12-04T15:34:02.056Z,93.11
2022-12-04T15:36:45.594Z,92.92
2022-12-04T15:39:16.800Z,93.35
2022-12-04T15:41:43.181Z,93.29
2022-12-04T15:44:21.438Z,93.68
2022-12-04T15:46:47.808Z,93.96
2022-12-04T15:49:20.280Z,94.13
2022-12-04T15:51:47.787Z,94.28
2022-12-04T15:54:25.914Z,94.32
2022-12-04T15:57:03.834Z,94.28
2022-12-04T15:59:31.969Z,94.39
2022-12-04T16:02:07.622Z,94.71
2022-12-04T16:04:34.938Z,95.89
2022-12-04T16:07:01.606Z,95.72
2022-12-04T16:09:28.765Z,95.37
2022-12-04T16:12:03.563Z,95.99
2022-12-04T16:14:29.834Z,95.94
2022-12-04T16:17:04.144Z,97.22
2022-12-04T16:19:36.784Z,97.73
2022-12-04T16:22:12.886Z,98.07
2022-12-04T16:24:39.697Z,98.04
2022-12-04T16:27:12.568Z,98.36
2022-12-04T16:29:39.066Z,97.92
2022-12-04T16:32:05.743Z,97.11
2022-12-04T16:34:32.312Z,97.36
2022-12-04T16:36:59.264Z,97.67
2022-12-04T16:39:25.610Z,97.65
2022-12-04T16:41:51.958Z,97.62
2022-12-04T16:44:18.301Z,97.46
2022-12-04T16:46:44.763Z,97.57
2022-12-04T16:49:12.316Z,97.74
2022-12-04T16:51:43.051Z,97.98
2022-12-04T16:54:11.476Z,97.95
2022-12-04T16:56:37.794Z,98.17
2022-12-04T16:59:08.942Z,98.22
2022-12-04T17:01:45.541Z,98.01
2022-12-04T17:04:12.718Z,97.95
2022-12-04T17:06:39.708Z,98.13
2022-12-04T17:09:06.539Z,98.27
2022-12-04T17:11:32.930Z,98.43
2022-12-04T17:13:59.296Z,98.47
2022-12-04T17:16:25.742Z,98.40
2022-12-04T17:18:52.188Z,97.91
2022-12-04T17:21:18.659Z,98.03
2022-12-04T17:23:45.106Z,97.69
2022-12-04T17:26:14.485Z,97.93
2022-12-04T17:28:41.782Z,97.65
2022-12-04T17:31:19.983Z,97.65
2022-12-04T17:33:46.657Z,98.12
2022-12-04T17:36:15.648Z,97.32
2022-12-04T17:38:42.449Z,96.87
2022-12-04T17:41:11.194Z,96.94
2022-12-04T17:43:37.510Z,97.35
2022-12-04T17:46:09.892Z,97.26
2022-12-04T17:48:36.402Z,97.37
2022-12-04T17:51:09.324Z,96.70
2022-12-04T17:53:35.792Z,96.46
2022-12-04T17:56:07.980Z,95.85
2022-12-04T17:58:34.990Z,95.02
2022-12-04T18:01:07.322Z,95.42
2022-12-04T18:03:34.472Z,95.10
2022-12-04T18:06:01.389Z,95.56
2022-12-04T18:08:27.837Z,94.85
2022-12-04T18:10:56.007Z,95.53
2022-12-04T18:13:22.579Z,95.51
2022-12-04T18:15:49.337Z,95.50
2022-12-04T18:18:15.780Z,95.74
2022-12-04T18:20:42.165Z,95.77
2022-12-04T18:23:08.778Z,95.76
2022-12-04T18:25:35.265Z,96.04
2022-12-04T18:28:01.708Z,95.71
2022-12-04T18:30:28.277Z,95.95
2022-12-04T18:32:54.892Z,96.15
2022-12-04T18:35:21.230Z,95.93
2022-12-04T18:37:47.792Z,96.35
2022-12-04T18:40:14.236Z,96.10
2022-12-04T18:42:40.686Z,96.08
2022-12-04T18:45:08.008Z,96.08
2022-12-04T18:47:34.609Z,96.12
2022-12-04T18:50:01.213Z,96.50
2022-12-04T18:52:27.624Z,96.39
2022-12-04T18:54:53.994Z,96.31
2022-12-04T18:57:20.541Z,96.01
2022-12-04T18:59:48.362Z,96.29
2022-12-04T19:02:14.813Z,95.54
2022-12-04T19:04:41.201Z,96.19
2022-12-04T19:07:07.942Z,96.43
2022-12-04T19:10:09.934Z,96.48
2022-12-04T19:12:21.059Z,96.47
2022-12-04T19:14:47.750Z,95.56
2022-12-04T19:17:14.146Z,95.88
2022-12-04T19:19:40.721Z,96.33
2022-12-04T19:22:07.505Z,96.79
2022-12-04T19:24:34.072Z,97.06
2022-12-04T19:27:00.530Z,97.07
2022-12-04T19:29:26.965Z,96.92
2022-12-04T19:31:58.852Z,96.33
2022-12-04T19:34:26.224Z,96.46
2022-12-04T19:36:54.439Z,97.01
2022-12-04T19:39:20.782Z,96.97
2022-12-04T19:41:47.379Z,97.43
2022-12-04T19:44:46.973Z,97.43
2022-12-04T19:47:00.548Z,97.58
2022-12-04T19:49:27.455Z,97.65
2022-12-04T19:51:54.008Z,97.07
2022-12-04T19:54:20.524Z,97.21
2022-12-04T19:56:50.142Z,97.50
2022-12-04T19:59:17.660Z,96.96
2022-12-04T20:01:47.250Z,97.21
2022-12-04T20:04:13.703Z,97.50
2022-12-04T20:06:43.265Z,96.94
2022-12-04T20:09:12.580Z,96.98
2022-12-04T20:11:39.872Z,97.11
2022-12-04T20:14:07.003Z,96.61
2022-12-04T20:16:34.877Z,96.86
2022-12-04T20:19:03.177Z,97.09
2022-12-04T20:21:29.825Z,96.95
2022-12-04T20:23:57.749Z,97.18
2022-12-04T20:26:27.342Z,96.83
2022-12-04T20:28:56.589Z,96.44
2022-12-04T20:31:31.204Z,96.52
2022-12-04T20:33:59.403Z,96.51
2022-12-04T20:36:28.403Z,96.44
2022-12-04T20:38:57.938Z,95.91
2022-12-04T20:41:26.175Z,96.28
2022-12-04T20:43:52.525Z,96.19
2022-12-04T20:46:22.255Z,96.19
2022-12-04T20:48:50.403Z,96.76
2022-12-04T20:51:21.276Z,96.41
2022-12-04T20:53:48.848Z,96.93
2022-12-04T20:56:16.628Z,97.17
2022-12-04T20:58:43.175Z,97.65
2022-12-04T21:01:12.023Z,97.19
2022-12-04T21:03:38.475Z,97.79
2022-12-04T21:06:05.073Z,97.95
2022-12-04T21:08:31.434Z,98.28
2022-12-04T21:10:57.962Z,98.07
2022-12-04T21:13:24.298Z,97.58
2022-12-04T21:15:50.641Z,97.73
2022-12-04T21:18:17.033Z,97.33
2022-12-04T21:20:43.370Z,97.86
2022-12-04T21:23:09.713Z,97.02
2022-12-04T21:25:36.353Z,96.53
2022-12-04T21:28:02.691Z,96.78
2022-12-04T21:30:29.010Z,96.35
2022-12-04T21:32:55.324Z,96.85
2022-12-04T21:35:21.631Z,97.60
2022-12-04T21:37:47.947Z,98.56
2022-12-04T21:40:14.297Z,98.45
2022-12-04T21:42:40.662Z,98.53
2022-12-04T21:45:07.408Z,98.98
2022-12-04T21:47:35.404Z,99.05
2022-12-04T21:50:01.794Z,99.05
2022-12-04T21:52:28.283Z,99.05
2022-12-04T21:54:55.153Z,99.24
2022-12-04T21:57:22.204Z,99.06
2022-12-04T21:59:50.943Z,98.80
2022-12-04T22:02:17.363Z,98.62
2022-12-04T22:04:43.738Z,99.07
2022-12-04T22:07:10.210Z,99.49
2022-12-04T22:09:37.688Z,98.84
2022-12-04T22:12:26.439Z,99.43
2022-12-04T22:14:51.221Z,99.54
2022-12-04T22:17:17.530Z,99.73
2022-12-04T22:19:43.857Z,99.91
2022-12-04T22:22:10.182Z,100.00
2022-12-04T22:24:36.516Z,100.00
2022-12-04T22:27:02.877Z,99.91
2022-12-04T22:32:15.654Z,100.00
2022-12-04T22:34:41.981Z,100.00
2022-12-04T22:37:08.349Z,100.00
2022-12-04T22:39:34.649Z,100.00
2022-12-04T22:42:01.047Z,100.00
2022-12-04T22:44:27.388Z,100.00
2022-12-04T22:46:54.957Z,100.00
2022-12-04T22:49:21.434Z,100.00
2022-12-04T22:51:47.771Z,100.00
2022-12-04T22:54:14.877Z,100.00
2022-12-04T22:56:41.315Z,100.00
2022-12-04T22:59:07.669Z,99.94
2022-12-04T23:01:34.487Z,99.71
2022-12-04T23:04:02.711Z,99.91
2022-12-04T23:06:31.443Z,99.45
2022-12-04T23:09:08.352Z,100.00
2022-12-04T23:11:35.887Z,99.81
2022-12-04T23:14:08.277Z,99.67
2022-12-04T23:16:36.551Z,99.86
2022-12-04T23:19:03.779Z,99.62
2022-12-04T23:21:30.133Z,99.62
2022-12-04T23:23:57.210Z,99.60
2022-12-04T23:26:26.699Z,99.30
2022-12-04T23:28:53.293Z,99.12
2022-12-04T23:31:19.843Z,99.00
2022-12-04T23:33:46.452Z,98.85
2022-12-04T23:36:14.209Z,98.87
2022-12-04T23:38:42.981Z,99.30
2022-12-04T23:41:15.445Z,98.76
2022-12-04T23:43:42.755Z,98.60
2022-12-04T23:46:11.672Z,98.54
2022-12-04T23:48:39.208Z,98.30
2022-12-04T23:51:06.241Z,98.08
2022-12-04T23:53:32.615Z,98.12
2022-12-04T23:56:02.372Z,98.68
2022-12-04T23:58:28.771Z,98.43
